Terminal Aerodrome Forecast
Issued by NWS Binghamton, NY

Home | Current Version | Previous Version | Text Only | Print | Product List | Glossary On
Versions: 1 2 3 4 5 6 7 8 9 10 11 12 13 14 15 16 17 18 19 20 21 22 23 24
000
FTUS41 KBGM 181100
TAFBGM
TAF
KBGM 181137Z 1812/1912 32004KT P6SM SCT060
      TEMPO 1812/1814 BKN060
     FM181400 34008KT P6SM SCT020 BKN035
     FM190000 01006KT P6SM SKC=

USA.gov is the U.S. government's official web portal to all federal, state and local government web resources and services.